createdAt,value
2023-03-07T00:00:13.671Z,8
2023-03-07T00:01:14.602Z,8.300000191
2023-03-07T00:02:16.216Z,9
2023-03-07T00:03:17.298Z,8
2023-03-07T00:04:18.294Z,8.100000381
2023-03-07T00:05:19.346Z,7.5
2023-03-07T00:06:20.312Z,8.5
2023-03-07T00:07:21.304Z,7.5
2023-03-07T00:08:22.334Z,8.600000381
2023-03-07T00:09:23.304Z,8.199999809
2023-03-07T00:10:24.236Z,7.400000095
2023-03-07T00:11:25.131Z,7.800000191
2023-03-07T00:12:26.688Z,7.099999905
2023-03-07T00:13:58.269Z,7.800000191
2023-03-07T00:14:59.194Z,7.699999809
2023-03-07T00:16:00.248Z,7.699999809
2023-03-07T00:17:01.087Z,7.5
2023-03-07T00:18:02.049Z,8
2023-03-07T00:19:03.092Z,7.300000191
2023-03-07T00:20:04.176Z,7.5
2023-03-07T00:21:05.142Z,8.199999809
2023-03-07T00:22:06.192Z,7.900000095
2023-03-07T00:23:07.602Z,7.099999905
2023-03-07T00:24:08.604Z,7.199999809
2023-03-07T00:25:09.670Z,7.400000095
2023-03-07T00:26:10.853Z,7.199999809
2023-03-07T00:27:11.853Z,7.599999905
2023-03-07T00:28:12.823Z,8.199999809
2023-03-07T00:29:14.905Z,7.5
2023-03-07T00:30:15.975Z,7.699999809
2023-03-07T00:31:17.210Z,7.5
2023-03-07T00:32:18.267Z,7.800000191
2023-03-07T00:33:19.688Z,7.599999905
2023-03-07T00:34:20.805Z,7.199999809
2023-03-07T00:35:21.880Z,6.900000095
2023-03-07T00:36:22.902Z,8.399999619
2023-03-07T00:37:24.757Z,8
2023-03-07T00:38:25.760Z,7.900000095
2023-03-07T00:39:57.882Z,7.199999809
2023-03-07T00:40:58.764Z,7.800000191
2023-03-07T00:41:59.838Z,8.100000381
2023-03-07T00:43:01.654Z,7.400000095
2023-03-07T00:44:02.623Z,7.599999905
2023-03-07T00:45:03.738Z,7.800000191
2023-03-07T00:46:04.951Z,7.300000191
2023-03-07T00:47:05.961Z,7.699999809
2023-03-07T00:48:06.919Z,7.800000191
2023-03-07T00:49:07.862Z,7.599999905
2023-03-07T00:50:08.750Z,7.900000095
2023-03-07T00:51:09.874Z,7.699999809
2023-03-07T00:52:10.886Z,8.300000191
2023-03-07T00:53:12.616Z,7.699999809
2023-03-07T00:54:13.553Z,8.5
2023-03-07T00:55:14.709Z,7.5
2023-03-07T00:56:15.602Z,8
2023-03-07T00:57:16.613Z,7.699999809
2023-03-07T00:58:17.727Z,8.300000191
2023-03-07T00:59:18.672Z,7.599999905
2023-03-07T01:00:20.135Z,8.300000191
2023-03-07T01:01:21.164Z,7.599999905
2023-03-07T01:02:22.151Z,7.699999809
2023-03-07T01:03:23.729Z,7.599999905
2023-03-07T01:04:24.726Z,8.199999809
2023-03-07T01:05:25.809Z,7.699999809
2023-03-07T01:06:57.290Z,7.699999809
2023-03-07T01:07:58.306Z,7.199999809
2023-03-07T01:08:59.345Z,7.300000191
2023-03-07T01:10:01.161Z,7
2023-03-07T01:11:02.025Z,8.100000381
2023-03-07T01:12:02.868Z,7.300000191
2023-03-07T01:13:04.683Z,7.900000095
2023-03-07T01:14:05.696Z,7.099999905
2023-03-07T01:15:06.670Z,7
2023-03-07T01:16:07.585Z,7.400000095
2023-03-07T01:17:08.425Z,7.400000095
2023-03-07T01:18:09.483Z,7.800000191
2023-03-07T01:19:10.698Z,6.900000095
2023-03-07T01:20:11.614Z,7.300000191
2023-03-07T01:21:12.514Z,7.300000191
2023-03-07T01:22:13.510Z,6.800000191
2023-03-07T01:23:15.210Z,7
2023-03-07T01:24:16.265Z,7.400000095
2023-03-07T01:25:17.302Z,7.300000191
2023-03-07T01:26:18.178Z,7.099999905
2023-03-07T01:27:19.121Z,7.199999809
2023-03-07T01:28:20.085Z,8
2023-03-07T01:29:21.673Z,7.699999809
2023-03-07T01:30:22.660Z,6.900000095
2023-03-07T01:31:23.769Z,7.300000191
2023-03-07T01:32:24.489Z,7.199999809
2023-03-07T01:33:56.911Z,7.199999809
2023-03-07T01:34:58.781Z,7.099999905
2023-03-07T01:35:59.817Z,6.300000191
2023-03-07T01:37:00.642Z,6.300000191
2023-03-07T01:38:01.465Z,6.5
2023-03-07T01:39:02.377Z,6.300000191
2023-03-07T01:40:04.183Z,6.400000095
2023-03-07T01:41:05.143Z,6.400000095
2023-03-07T01:42:06.101Z,6.599999905
2023-03-07T01:43:07.746Z,6.800000191
2023-03-07T01:44:08.618Z,7
2023-03-07T01:45:09.557Z,6.900000095
2023-03-07T01:46:10.820Z,6.300000191
2023-03-07T01:47:11.777Z,6.300000191
2023-03-07T01:48:12.529Z,7
2023-03-07T01:49:13.388Z,6.599999905
2023-03-07T01:50:14.528Z,5.800000191
2023-03-07T01:51:15.554Z,6.900000095
2023-03-07T01:52:16.464Z,6.099999905
2023-03-07T01:53:18.130Z,6.400000095
2023-03-07T01:54:18.971Z,7
2023-03-07T01:55:20.030Z,6.400000095
2023-03-07T01:56:20.947Z,5.800000191
2023-03-07T01:57:22.025Z,6.199999809
2023-03-07T01:58:22.938Z,6
2023-03-07T01:59:24.627Z,6.300000191
2023-03-07T02:00:26.002Z,5.800000191
2023-03-07T02:01:57.467Z,6.300000191
2023-03-07T02:02:58.563Z,6.199999809
2023-03-07T02:04:00.149Z,6.300000191
2023-03-07T02:05:00.899Z,7
2023-03-07T02:06:01.856Z,6.800000191
2023-03-07T02:07:02.841Z,6.800000191
2023-03-07T02:08:03.887Z,7.300000191
2023-03-07T02:09:04.801Z,6.400000095
2023-03-07T02:10:05.695Z,6.699999809
2023-03-07T02:11:06.624Z,6.900000095
2023-03-07T02:12:07.605Z,6.699999809
2023-03-07T02:13:09.222Z,6.5
2023-03-07T02:14:10.422Z,6.800000191
2023-03-07T02:15:12.062Z,6.300000191
2023-03-07T02:16:13.105Z,5.900000095
2023-03-07T02:17:14.027Z,7.300000191
2023-03-07T02:18:15.001Z,6.300000191
2023-03-07T02:19:15.978Z,7
2023-03-07T02:20:16.898Z,7.400000095
2023-03-07T02:21:17.814Z,5.900000095
2023-03-07T02:22:18.697Z,6.300000191
2023-03-07T02:23:20.147Z,7.599999905
2023-03-07T02:24:21.139Z,6.300000191
2023-03-07T02:25:22.077Z,7.300000191
2023-03-07T02:26:22.981Z,6.099999905
2023-03-07T02:27:23.831Z,6.800000191
2023-03-07T02:28:24.835Z,6.5
2023-03-07T02:29:57.099Z,6
2023-03-07T02:30:58.201Z,6.400000095
2023-03-07T02:31:58.987Z,7.400000095
2023-03-07T02:33:00.552Z,6.5
2023-03-07T02:34:02.229Z,6.800000191
2023-03-07T02:35:03.176Z,6.199999809
2023-03-07T02:36:04.166Z,6.900000095
2023-03-07T02:37:05.052Z,6.599999905
2023-03-07T02:38:05.896Z,6.900000095
2023-03-07T02:39:07.032Z,6.400000095
2023-03-07T02:40:07.908Z,6.900000095
2023-03-07T02:41:08.847Z,6.199999809
2023-03-07T02:42:09.752Z,6.300000191
2023-03-07T02:43:10.733Z,6.099999905
2023-03-07T02:44:12.649Z,6.699999809
2023-03-07T02:45:13.525Z,7.400000095
2023-03-07T02:46:14.690Z,6.599999905
2023-03-07T02:47:15.744Z,6.599999905
2023-03-07T02:48:16.557Z,6.099999905
2023-03-07T02:49:18.161Z,5.599999905
2023-03-07T02:50:19.059Z,6.599999905
2023-03-07T02:51:20.078Z,6.599999905
2023-03-07T02:52:21.048Z,7.099999905
2023-03-07T02:53:21.912Z,6.699999809
2023-03-07T02:54:23.622Z,6.199999809
2023-03-07T02:55:24.446Z,6.099999905
2023-03-07T02:56:57.164Z,7.300000191
2023-03-07T02:57:58.104Z,6.400000095
2023-03-07T02:58:58.988Z,6.300000191
2023-03-07T02:59:59.845Z,6.199999809
2023-03-07T03:01:00.853Z,6.400000095
2023-03-07T03:02:01.918Z,6.400000095
2023-03-07T03:03:03.715Z,6.900000095
2023-03-07T03:04:05.223Z,6.699999809
2023-03-07T03:05:06.231Z,6.199999809
2023-03-07T03:06:07.073Z,6.699999809
2023-03-07T03:07:08.711Z,6.599999905
2023-03-07T03:08:09.654Z,7
2023-03-07T03:09:10.697Z,6.800000191
2023-03-07T03:10:11.592Z,7.099999905
2023-03-07T03:11:12.405Z,6.400000095
2023-03-07T03:12:13.358Z,6.300000191
2023-03-07T03:13:14.342Z,6.699999809
2023-03-07T03:14:16.131Z,6.900000095
2023-03-07T03:15:16.959Z,6.900000095
2023-03-07T03:16:17.878Z,6.300000191
2023-03-07T03:17:18.756Z,6.900000095
2023-03-07T03:18:19.670Z,6.800000191
2023-03-07T03:19:20.701Z,6.199999809
2023-03-07T03:20:21.706Z,6.800000191
2023-03-07T03:21:22.556Z,6.400000095
2023-03-07T03:22:23.452Z,7.099999905
2023-03-07T03:23:24.424Z,7.099999905
2023-03-07T03:24:56.663Z,8
2023-03-07T03:25:57.506Z,7.400000095
2023-03-07T03:26:58.353Z,7.300000191
2023-03-07T03:28:00.105Z,8.100000381
2023-03-07T03:29:01.134Z,8.300000191
2023-03-07T03:30:02.187Z,8.199999809
2023-03-07T03:31:03.277Z,8
2023-03-07T03:32:04.161Z,8
2023-03-07T03:33:05.020Z,8.300000191
2023-03-07T03:34:06.741Z,8.199999809
2023-03-07T03:35:07.732Z,8.199999809
2023-03-07T03:36:08.841Z,7.800000191
2023-03-07T03:37:09.564Z,7.300000191
2023-03-07T03:38:10.630Z,8.199999809
2023-03-07T03:39:11.722Z,7.800000191
2023-03-07T03:40:12.797Z,7.5
2023-03-07T03:41:13.884Z,8
2023-03-07T03:42:14.760Z,7.400000095
2023-03-07T03:43:15.674Z,8.100000381
2023-03-07T03:44:17.211Z,7.599999905
2023-03-07T03:45:18.178Z,8.399999619
2023-03-07T03:46:19.217Z,8
2023-03-07T03:47:20.197Z,8
2023-03-07T03:48:21.114Z,8.199999809
2023-03-07T03:49:22.692Z,7.699999809
2023-03-07T03:50:23.734Z,8
2023-03-07T03:51:55.499Z,8.699999809
2023-03-07T03:52:56.443Z,8.199999809
2023-03-07T03:53:57.376Z,8.300000191
2023-03-07T03:54:59.201Z,8.300000191
2023-03-07T03:56:01.175Z,8.5
2023-03-07T03:57:02.246Z,7.800000191
2023-03-07T03:58:03.079Z,7.199999809
2023-03-07T03:59:04.108Z,8.5
2023-03-07T04:00:04.972Z,8.800000191
2023-03-07T04:01:05.934Z,8.399999619
2023-03-07T04:02:07.031Z,8.199999809
2023-03-07T04:03:08.753Z,7.900000095
2023-03-07T04:04:10.144Z,8.300000191
2023-03-07T04:05:11.305Z,8.199999809
2023-03-07T04:06:12.178Z,7.800000191
2023-03-07T04:07:13.180Z,7.800000191
2023-03-07T04:08:14.170Z,7.400000095
2023-03-07T04:09:15.273Z,7.900000095
2023-03-07T04:10:16.067Z,8.699999809
2023-03-07T04:11:16.975Z,8.300000191
2023-03-07T04:12:17.835Z,8.100000381
2023-03-07T04:13:18.836Z,8
2023-03-07T04:14:20.750Z,8.300000191
2023-03-07T04:15:21.635Z,8.899999619
2023-03-07T04:16:22.622Z,8
2023-03-07T04:17:23.382Z,7.699999809
2023-03-07T04:18:55.235Z,8.600000381
2023-03-07T04:19:56.115Z,8.5
2023-03-07T04:20:57.700Z,9.199999809
2023-03-07T04:21:58.537Z,8.300000191
2023-03-07T04:22:59.488Z,8.399999619
2023-03-07T04:24:00.586Z,8.300000191
2023-03-07T04:25:02.152Z,9.300000191
2023-03-07T04:26:03.229Z,7.900000095
2023-03-07T04:27:04.074Z,8.699999809
2023-03-07T04:28:04.893Z,8.199999809
2023-03-07T04:29:05.823Z,7.900000095
2023-03-07T04:30:06.702Z,8.800000191
2023-03-07T04:31:07.518Z,9.100000381
2023-03-07T04:32:09.222Z,8.800000191
2023-03-07T04:33:09.907Z,8.300000191
2023-03-07T04:34:10.811Z,8.399999619
2023-03-07T04:35:12.805Z,8
2023-03-07T04:36:13.824Z,9.199999809
2023-03-07T04:37:14.838Z,8.5
2023-03-07T04:38:15.885Z,9.199999809
2023-03-07T04:39:16.896Z,8
2023-03-07T04:40:17.895Z,9.199999809
2023-03-07T04:41:18.925Z,7.5
2023-03-07T04:42:19.872Z,8.100000381
2023-03-07T04:43:21.606Z,8.699999809
2023-03-07T04:44:23.346Z,8.899999619
2023-03-07T04:45:54.753Z,8.800000191
2023-03-07T04:46:55.672Z,9
2023-03-07T04:47:56.691Z,8.600000381
2023-03-07T04:48:57.600Z,7.900000095
2023-03-07T04:49:58.589Z,8.800000191
2023-03-07T04:50:59.570Z,8.699999809
2023-03-07T04:52:01.192Z,9.199999809
2023-03-07T04:53:02.256Z,8.300000191
2023-03-07T04:54:03.261Z,8.899999619
2023-03-07T04:55:05.154Z,8.5
2023-03-07T04:56:05.917Z,8.5
2023-03-07T04:57:06.830Z,8.300000191
2023-03-07T04:58:07.663Z,8.100000381
2023-03-07T04:59:08.591Z,8.800000191
2023-03-07T05:00:10.586Z,8.800000191
2023-03-07T05:01:11.524Z,8.399999619
2023-03-07T05:02:12.455Z,8.800000191
2023-03-07T05:03:13.516Z,9
2023-03-07T05:04:14.624Z,9.5
2023-03-07T05:05:16.238Z,8
2023-03-07T05:06:17.225Z,8.300000191
2023-03-07T05:07:18.141Z,8.5
2023-03-07T05:08:19.151Z,8.600000381
2023-03-07T05:09:20.189Z,8.800000191
2023-03-07T05:10:21.191Z,8.600000381
2023-03-07T05:11:22.056Z,8.600000381
2023-03-07T05:12:22.943Z,8.300000191
2023-03-07T05:13:54.555Z,8.199999809
2023-03-07T05:14:56.166Z,9
2023-03-07T05:15:57.290Z,8.5
2023-03-07T05:16:58.097Z,8
2023-03-07T05:17:59.012Z,8.699999809
2023-03-07T05:19:00.684Z,8.800000191
2023-03-07T05:20:01.674Z,8.899999619
2023-03-07T05:21:02.714Z,9.100000381
2023-03-07T05:22:03.515Z,8.399999619
2023-03-07T05:23:04.390Z,8.300000191
2023-03-07T05:24:05.307Z,8.399999619
2023-03-07T05:25:07.159Z,8.899999619
2023-03-07T05:26:08.740Z,8.800000191
2023-03-07T05:27:09.536Z,8.800000191
2023-03-07T05:28:10.690Z,8.5
2023-03-07T05:29:11.576Z,8.300000191
2023-03-07T05:30:13.173Z,8.399999619
2023-03-07T05:31:14.224Z,9.600000381
2023-03-07T05:32:15.028Z,8.699999809
2023-03-07T05:33:15.909Z,8.899999619
2023-03-07T05:34:16.750Z,9.5
2023-03-07T05:35:18.616Z,8.699999809
2023-03-07T05:36:19.664Z,8.399999619
2023-03-07T05:37:20.649Z,9.300000191
2023-03-07T05:38:21.542Z,8
2023-03-07T05:39:22.486Z,8.100000381
2023-03-07T05:40:54.086Z,9.600000381
2023-03-07T05:41:55.089Z,8
2023-03-07T05:42:56.140Z,9
2023-03-07T05:43:57.101Z,8.600000381
2023-03-07T05:44:58.708Z,9.600000381
2023-03-07T05:45:59.752Z,9.699999809
2023-03-07T05:47:00.748Z,8.199999809
2023-03-07T05:48:01.724Z,7.800000191
2023-03-07T05:49:02.587Z,8.199999809
2023-03-07T05:50:04.065Z,9.100000381
2023-03-07T05:51:05.036Z,9.399999619
2023-03-07T05:52:06.144Z,8.399999619
2023-03-07T05:53:07.037Z,8.800000191
2023-03-07T05:54:07.957Z,9
2023-03-07T05:55:09.652Z,9.100000381
2023-03-07T05:56:10.647Z,8.600000381
2023-03-07T05:57:11.689Z,8.5
2023-03-07T05:58:12.631Z,9.199999809
2023-03-07T05:59:13.552Z,9.399999619
2023-03-07T06:00:14.463Z,8.899999619
2023-03-07T06:01:16.072Z,9.100000381
2023-03-07T06:02:17.080Z,8.5
2023-03-07T06:03:17.894Z,8.800000191
2023-03-07T06:04:18.850Z,8.5
2023-03-07T06:05:20.665Z,8.800000191
2023-03-07T06:06:21.513Z,9.600000381
2023-03-07T06:07:22.594Z,8.899999619
2023-03-07T06:08:53.939Z,9.600000381
2023-03-07T06:09:54.932Z,9.100000381
2023-03-07T06:10:56.021Z,7.699999809
2023-03-07T06:11:56.764Z,8.899999619
2023-03-07T06:12:57.744Z,8.899999619
2023-03-07T06:13:58.722Z,10.39999962
2023-03-07T06:15:00.690Z,9.899999619
2023-03-07T06:16:01.608Z,8.699999809
2023-03-07T06:17:02.470Z,9.199999809
2023-03-07T06:18:03.454Z,9.100000381
2023-03-07T06:19:05.164Z,10.19999981
2023-03-07T06:20:06.206Z,9.699999809
2023-03-07T06:21:07.228Z,9.699999809
2023-03-07T06:22:08.239Z,8.800000191
2023-03-07T06:23:09.128Z,9.399999619
2023-03-07T06:24:10.425Z,9
2023-03-07T06:25:12.209Z,9.199999809
2023-03-07T06:26:13.444Z,8.899999619
2023-03-07T06:27:14.191Z,8.899999619
2023-03-07T06:28:15.179Z,8.800000191
2023-03-07T06:29:16.055Z,9.199999809
2023-03-07T06:30:17.154Z,9.199999809
2023-03-07T06:31:18.645Z,9.199999809
2023-03-07T06:32:19.621Z,8.899999619
2023-03-07T06:33:20.654Z,9
2023-03-07T06:34:21.537Z,8.300000191
2023-03-07T06:35:23.669Z,9.899999619
2023-03-07T06:36:55.245Z,9.600000381
2023-03-07T06:37:56.193Z,9.800000191
2023-03-07T06:38:57.103Z,9.300000191
2023-03-07T06:39:58.068Z,8.399999619
2023-03-07T06:40:59.070Z,8.399999619
2023-03-07T06:42:00.118Z,8.899999619
2023-03-07T06:43:01.151Z,9.600000381
2023-03-07T06:44:02.105Z,8.800000191
2023-03-07T06:45:02.993Z,9.199999809
2023-03-07T06:46:04.891Z,9.699999809
2023-03-07T06:47:05.757Z,9.300000191
2023-03-07T06:48:06.709Z,9.399999619
2023-03-07T06:49:07.773Z,8.300000191
2023-03-07T06:50:09.116Z,8.899999619
2023-03-07T06:51:10.128Z,8.899999619
2023-03-07T06:52:11.416Z,8.800000191
2023-03-07T06:53:12.474Z,9.699999809
2023-03-07T06:54:14.325Z,9.5
2023-03-07T06:55:15.334Z,9.300000191
2023-03-07T06:56:17.115Z,9
2023-03-07T06:57:18.041Z,9.800000191
2023-03-07T06:58:19.030Z,8.399999619
2023-03-07T06:59:20.130Z,8.5
2023-03-07T07:00:20.998Z,9.300000191
2023-03-07T07:01:21.952Z,10
2023-03-07T07:02:54.326Z,9.199999809
2023-03-07T07:03:55.171Z,8.899999619
2023-03-07T07:04:56.167Z,9.100000381
2023-03-07T07:05:57.596Z,9.300000191
2023-03-07T07:06:58.574Z,9.100000381
2023-03-07T07:07:59.683Z,9.5
2023-03-07T07:09:00.683Z,10
2023-03-07T07:10:01.778Z,9.199999809
2023-03-07T07:11:02.493Z,9
2023-03-07T07:12:03.465Z,9.600000381
2023-03-07T07:13:04.462Z,9.199999809
2023-03-07T07:14:05.471Z,9.899999619
2023-03-07T07:15:06.538Z,9.399999619
2023-03-07T07:16:08.166Z,9.399999619
2023-03-07T07:17:09.068Z,9.199999809
2023-03-07T07:18:11.506Z,8.600000381
2023-03-07T07:19:11.474Z,9.399999619
2023-03-07T07:20:12.512Z,9.100000381
2023-03-07T07:21:13.489Z,8.699999809
2023-03-07T07:22:14.368Z,8.699999809
2023-03-07T07:23:16.226Z,9.300000191
2023-03-07T07:24:17.260Z,9.399999619
2023-03-07T07:25:19.231Z,9.5
2023-03-07T07:26:21.179Z,9.300000191
2023-03-07T07:27:22.515Z,9.199999809
2023-03-07T07:28:53.995Z,9.399999619
2023-03-07T07:29:55.008Z,8.100000381
2023-03-07T07:30:56.732Z,9.399999619
2023-03-07T07:31:57.764Z,9.399999619
2023-03-07T07:32:58.767Z,9.199999809
2023-03-07T07:33:59.660Z,9.699999809
2023-03-07T07:35:00.685Z,9.100000381
2023-03-07T07:36:02.770Z,9.600000381
2023-03-07T07:37:03.764Z,9.399999619
2023-03-07T07:38:04.707Z,8.600000381
2023-03-07T07:39:05.664Z,9.899999619
2023-03-07T07:40:06.716Z,9.300000191
2023-03-07T07:41:08.740Z,9.199999809
2023-03-07T07:42:09.694Z,9
2023-03-07T07:43:10.841Z,8.899999619
2023-03-07T07:44:11.772Z,9.300000191
2023-03-07T07:45:13.714Z,9.699999809
2023-03-07T07:46:15.718Z,9.399999619
2023-03-07T07:47:16.673Z,9.399999619
2023-03-07T07:48:17.587Z,9.5
2023-03-07T07:49:18.826Z,8.899999619
2023-03-07T07:50:20.208Z,9.100000381
2023-03-07T07:51:21.348Z,8.699999809
2023-03-07T07:52:53.067Z,9.300000191
2023-03-07T07:53:54.080Z,9.399999619
2023-03-07T07:54:55.145Z,8.899999619
2023-03-07T07:55:56.721Z,10.10000038
2023-03-07T07:56:57.749Z,9.899999619
2023-03-07T07:57:58.640Z,8.699999809
2023-03-07T07:58:59.624Z,8.899999619
2023-03-07T08:00:00.513Z,9.5
2023-03-07T08:01:01.665Z,8.899999619
2023-03-07T08:02:02.767Z,10.30000019
2023-03-07T08:03:04.851Z,9.199999809
2023-03-07T08:04:05.933Z,9.100000381
2023-03-07T08:05:07.231Z,9
2023-03-07T08:06:09.218Z,10.19999981
2023-03-07T08:07:11.299Z,9.899999619
2023-03-07T08:08:12.469Z,9.800000191
2023-03-07T08:09:14.762Z,9.600000381
2023-03-07T08:10:16.041Z,8.899999619
2023-03-07T08:11:17.189Z,10
2023-03-07T08:12:18.321Z,10.30000019
2023-03-07T08:13:19.673Z,10.10000038
2023-03-07T08:14:20.694Z,9.600000381
2023-03-07T08:15:22.414Z,9.800000191
2023-03-07T08:16:54.774Z,9.600000381
2023-03-07T08:17:55.971Z,9.800000191
2023-03-07T08:18:57.036Z,9.300000191
2023-03-07T08:20:00.968Z,9.300000191
2023-03-07T08:20:59.614Z,9.699999809
2023-03-07T08:22:01.753Z,9.399999619
2023-03-07T08:23:02.815Z,9.100000381
2023-03-07T08:24:03.850Z,9.5
2023-03-07T08:25:05.213Z,9.300000191
2023-03-07T08:26:07.301Z,9.199999809
2023-03-07T08:27:08.549Z,10.19999981
2023-03-07T08:28:09.558Z,9.399999619
2023-03-07T08:29:10.916Z,9.199999809
2023-03-07T08:30:12.333Z,10.69999981
2023-03-07T08:31:25.042Z,9.600000381
2023-03-07T08:33:06.091Z,9.199999809
2023-03-07T08:34:06.818Z,9.899999619
2023-03-07T08:35:08.751Z,8.800000191
2023-03-07T08:36:10.025Z,9.600000381
2023-03-07T08:37:12.138Z,9.100000381
2023-03-07T08:38:12.827Z,9.899999619
2023-03-07T08:39:13.540Z,10
2023-03-07T08:40:14.447Z,8.899999619
2023-03-07T08:41:15.328Z,9.600000381
2023-03-07T08:42:17.188Z,9.600000381
2023-03-07T08:43:17.847Z,9.199999809
2023-03-07T08:44:18.691Z,9.899999619
2023-03-07T08:45:22.771Z,9.199999809
2023-03-07T08:46:53.786Z,9.5
2023-03-07T08:47:54.733Z,10.10000038
2023-03-07T08:48:55.664Z,9.199999809
2023-03-07T08:49:56.600Z,9.5
2023-03-07T08:50:57.629Z,11.10000038
2023-03-07T08:51:58.648Z,9.300000191
2023-03-07T08:52:59.638Z,10.19999981
2023-03-07T08:54:00.526Z,10.10000038
2023-03-07T08:55:01.466Z,11.30000019
2023-03-07T08:56:02.443Z,10.19999981
2023-03-07T08:57:04.318Z,9.600000381
2023-03-07T08:58:05.250Z,10.39999962
2023-03-07T08:59:06.179Z,10.30000019
2023-03-07T09:00:07.605Z,9.399999619
2023-03-07T09:01:08.602Z,9.399999619
2023-03-07T09:02:09.698Z,9.5
2023-03-07T09:03:10.685Z,10.5
2023-03-07T09:04:11.597Z,9.199999809
2023-03-07T09:05:13.112Z,9.800000191
2023-03-07T09:06:14.089Z,10.39999962
2023-03-07T09:07:15.860Z,9
2023-03-07T09:08:16.916Z,10.10000038
2023-03-07T09:09:18.667Z,9.699999809
2023-03-07T09:10:19.550Z,9.399999619
2023-03-07T09:11:20.456Z,9.600000381
2023-03-07T09:12:52.549Z,9.199999809
2023-03-07T09:13:53.494Z,9.300000191
2023-03-07T09:14:54.376Z,10.30000019
2023-03-07T09:15:55.340Z,11
2023-03-07T09:16:57.305Z,10
2023-03-07T09:17:58.300Z,10.5
2023-03-07T09:19:00.186Z,9.800000191
2023-03-07T09:20:01.133Z,10.5
2023-03-07T09:21:02.190Z,9.899999619
2023-03-07T09:22:03.113Z,10.19999981
2023-03-07T09:23:04.159Z,10.80000019
2023-03-07T09:24:05.109Z,9.199999809
2023-03-07T09:25:06.107Z,11.39999962
2023-03-07T09:26:07.657Z,9.699999809
2023-03-07T09:27:08.630Z,11.19999981
2023-03-07T09:28:10.544Z,10.80000019
2023-03-07T09:29:11.680Z,10.10000038
2023-03-07T09:30:12.783Z,9.699999809
2023-03-07T09:31:13.664Z,9.600000381
2023-03-07T09:32:15.059Z,10.69999981
2023-03-07T09:33:16.149Z,10.80000019
2023-03-07T09:34:17.139Z,10.80000019
2023-03-07T09:35:18.191Z,11.19999981
2023-03-07T09:36:19.607Z,10.19999981
2023-03-07T09:37:21.134Z,10
2023-03-07T09:38:53.353Z,10.89999962
2023-03-07T09:39:54.205Z,9
2023-03-07T09:40:55.157Z,10
2023-03-07T09:41:56.072Z,10.30000019
2023-03-07T09:42:56.999Z,10.69999981
2023-03-07T09:43:58.127Z,10.39999962
2023-03-07T09:44:58.910Z,10.69999981
2023-03-07T09:45:59.940Z,10.19999981
2023-03-07T09:47:01.645Z,10.39999962
2023-03-07T09:48:02.541Z,10.69999981
2023-03-07T09:49:03.633Z,10
2023-03-07T09:50:04.657Z,11.39999962
2023-03-07T09:51:11.712Z,10.69999981
2023-03-07T09:52:07.536Z,10.5
2023-03-07T09:53:07.336Z,10.60000038
2023-03-07T09:54:08.381Z,10.10000038
2023-03-07T09:55:09.348Z,11.39999962
2023-03-07T09:56:10.490Z,10.30000019
2023-03-07T09:57:11.431Z,10.39999962
2023-03-07T09:58:12.296Z,10.80000019
2023-03-07T09:59:22.435Z,11.30000019
2023-03-07T10:00:14.284Z,11.60000038
2023-03-07T10:01:15.345Z,10.30000019
2023-03-07T10:02:16.256Z,10.30000019
2023-03-07T10:03:17.100Z,10.60000038
2023-03-07T10:04:18.285Z,9.800000191
2023-03-07T10:05:19.228Z,10
2023-03-07T10:06:20.250Z,10.10000038
2023-03-07T10:07:51.582Z,11.60000038
2023-03-07T10:08:52.492Z,11.39999962
2023-03-07T10:09:53.465Z,10.89999962
2023-03-07T10:10:54.424Z,10.39999962
2023-03-07T10:11:55.409Z,11.39999962
2023-03-07T10:12:56.377Z,10.80000019
2023-03-07T10:13:57.351Z,10.69999981
2023-03-07T10:14:58.358Z,10.69999981
2023-03-07T10:15:59.175Z,10.89999962
2023-03-07T10:17:00.195Z,11.39999962
2023-03-07T10:18:02.242Z,11
2023-03-07T10:19:01.798Z,10.39999962
2023-03-07T10:20:02.731Z,11.5
2023-03-07T10:21:03.497Z,10.60000038
2023-03-07T10:22:04.281Z,11.69999981
2023-03-07T10:23:05.153Z,11.60000038
2023-03-07T10:24:05.977Z,10.89999962
2023-03-07T10:25:06.827Z,10.19999981
2023-03-07T10:26:07.748Z,10.60000038
2023-03-07T10:27:08.700Z,10.89999962
2023-03-07T10:28:09.597Z,11
2023-03-07T10:29:10.722Z,11.10000038
2023-03-07T10:30:11.575Z,11.39999962
2023-03-07T10:31:12.396Z,12.19999981
2023-03-07T10:32:13.339Z,11.80000019
2023-03-07T10:33:14.159Z,10.89999962
2023-03-07T10:34:25.849Z,11.39999962
2023-03-07T10:35:15.936Z,11.30000019
2023-03-07T10:36:16.749Z,11.10000038
2023-03-07T10:37:17.631Z,11.69999981
2023-03-07T10:38:18.472Z,12.39999962
2023-03-07T10:39:19.334Z,12.69999981
2023-03-07T10:40:20.804Z,11.69999981
2023-03-07T10:41:51.970Z,11.60000038
2023-03-07T10:42:52.826Z,12.69999981
2023-03-07T10:43:53.650Z,11.30000019
2023-03-07T10:44:54.500Z,11
2023-03-07T10:45:55.493Z,10.69999981
2023-03-07T10:46:56.749Z,10.69999981
2023-03-07T10:47:57.083Z,10.30000019
2023-03-07T10:48:57.873Z,10.69999981
2023-03-07T10:49:58.707Z,11.10000038
2023-03-07T10:50:59.578Z,10.80000019
2023-03-07T10:52:00.377Z,11
2023-03-07T10:53:01.204Z,11
2023-03-07T10:54:02.016Z,11.80000019
2023-03-07T10:55:02.853Z,10.89999962
2023-03-07T10:56:03.701Z,10.80000019
2023-03-07T10:57:04.542Z,9.699999809
2023-03-07T10:58:05.314Z,9.800000191
2023-03-07T10:59:06.119Z,11.10000038
2023-03-07T11:00:06.901Z,11.39999962
2023-03-07T11:01:07.862Z,10.69999981
2023-03-07T11:02:08.649Z,11
2023-03-07T11:03:09.439Z,10.19999981
2023-03-07T11:04:10.520Z,10.30000019
2023-03-07T11:05:11.412Z,11
2023-03-07T11:06:12.153Z,11.19999981
2023-03-07T11:07:13.046Z,11.39999962
2023-03-07T11:08:13.896Z,11.19999981
2023-03-07T11:09:14.705Z,11.89999962
2023-03-07T11:10:15.645Z,11
2023-03-07T11:11:16.533Z,11.30000019
2023-03-07T11:12:17.370Z,10.30000019
2023-03-07T11:13:18.181Z,11.10000038
2023-03-07T11:14:19.150Z,11.10000038
2023-03-07T11:15:20.423Z,11
2023-03-07T11:16:51.528Z,10.60000038
2023-03-07T11:17:52.337Z,12.39999962
2023-03-07T11:18:53.161Z,14.10000038
2023-03-07T11:19:54.044Z,12.5
2023-03-07T11:20:54.823Z,10.39999962
2023-03-07T11:21:55.814Z,12.30000019
2023-03-07T11:22:56.808Z,9.5
2023-03-07T11:23:57.665Z,10.39999962
2023-03-07T11:24:58.474Z,12
2023-03-07T11:25:59.255Z,10.19999981
2023-03-07T11:27:00.203Z,12.39999962
2023-03-07T11:28:00.914Z,10.30000019
2023-03-07T11:29:01.791Z,12.5
2023-03-07T11:30:02.577Z,11.80000019
2023-03-07T11:31:03.482Z,10.80000019
2023-03-07T11:32:05.877Z,11
2023-03-07T11:33:05.277Z,10.89999962
2023-03-07T11:34:06.116Z,10.30000019
2023-03-07T11:35:06.904Z,11.19999981
2023-03-07T11:36:07.889Z,11
2023-03-07T11:37:08.681Z,10.80000019
2023-03-07T11:38:09.465Z,9.800000191
2023-03-07T11:39:11.029Z,11.30000019
2023-03-07T11:40:11.927Z,10.39999962